sensor_id;sensor_type;location;lat;lon;timestamp;P1;durP1;ratioP1;P2;durP2;ratioP2
727;SDS011;347;48.780;9.158;2022-10-22T00:00:09;8.37;;;8.07;;
727;SDS011;347;48.780;9.158;2022-10-22T00:02:37;7.80;;;7.60;;
727;SDS011;347;48.780;9.158;2022-10-22T00:05:04;7.80;;;7.50;;
727;SDS011;347;48.780;9.158;2022-10-22T00:07:30;7.83;;;7.53;;
727;SDS011;347;48.780;9.158;2022-10-22T00:09:56;7.23;;;7.03;;
727;SDS011;347;48.780;9.158;2022-10-22T00:12:21;7.70;;;7.30;;
727;SDS011;347;48.780;9.158;2022-10-22T00:14:47;7.53;;;7.20;;
727;SDS011;347;48.780;9.158;2022-10-22T00:17:14;6.87;;;6.67;;
727;SDS011;347;48.780;9.158;2022-10-22T00:19:39;7.17;;;6.87;;
727;SDS011;347;48.780;9.158;2022-10-22T00:22:06;7.13;;;6.93;;
727;SDS011;347;48.780;9.158;2022-10-22T00:24:33;6.83;;;6.63;;
727;SDS011;347;48.780;9.158;2022-10-22T00:27:00;7.13;;;6.93;;
727;SDS011;347;48.780;9.158;2022-10-22T00:29:26;6.70;;;6.50;;
727;SDS011;347;48.780;9.158;2022-10-22T00:31:51;7.20;;;7.00;;
727;SDS011;347;48.780;9.158;2022-10-22T00:34:17;6.90;;;6.60;;
727;SDS011;347;48.780;9.158;2022-10-22T00:36:45;7.07;;;6.87;;
727;SDS011;347;48.780;9.158;2022-10-22T00:39:12;7.20;;;6.90;;
727;SDS011;347;48.780;9.158;2022-10-22T00:41:40;7.27;;;7.07;;
727;SDS011;347;48.780;9.158;2022-10-22T00:44:06;7.40;;;7.07;;
727;SDS011;347;48.780;9.158;2022-10-22T00:46:32;7.03;;;6.83;;
727;SDS011;347;48.780;9.158;2022-10-22T00:48:59;6.43;;;6.23;;
727;SDS011;347;48.780;9.158;2022-10-22T00:51:28;6.70;;;6.40;;
727;SDS011;347;48.780;9.158;2022-10-22T00:54:00;6.60;;;6.40;;
727;SDS011;347;48.780;9.158;2022-10-22T00:56:29;6.97;;;6.67;;
727;SDS011;347;48.780;9.158;2022-10-22T00:58:56;7.30;;;6.80;;
727;SDS011;347;48.780;9.158;2022-10-22T01:01:25;6.97;;;6.57;;
727;SDS011;347;48.780;9.158;2022-10-22T01:03:53;6.73;;;6.43;;
727;SDS011;347;48.780;9.158;2022-10-22T01:06:29;6.33;;;6.13;;
727;SDS011;347;48.780;9.158;2022-10-22T01:17:24;6.73;;;6.43;;
727;SDS011;347;48.780;9.158;2022-10-22T01:25:33;6.23;;;5.97;;
727;SDS011;347;48.780;9.158;2022-10-22T01:28:08;7.13;;;6.80;;
727;SDS011;347;48.780;9.158;2022-10-22T01:30:56;6.07;;;5.87;;
727;SDS011;347;48.780;9.158;2022-10-22T01:33:25;6.27;;;6.07;;
727;SDS011;347;48.780;9.158;2022-10-22T01:35:51;5.73;;;5.53;;
727;SDS011;347;48.780;9.158;2022-10-22T01:38:18;5.77;;;5.57;;
727;SDS011;347;48.780;9.158;2022-10-22T01:40:47;6.67;;;5.93;;
727;SDS011;347;48.780;9.158;2022-10-22T01:43:14;5.80;;;5.60;;
727;SDS011;347;48.780;9.158;2022-10-22T01:45:47;6.03;;;5.73;;
727;SDS011;347;48.780;9.158;2022-10-22T01:53:51;5.90;;;5.70;;
727;SDS011;347;48.780;9.158;2022-10-22T01:59:20;5.90;;;5.60;;
727;SDS011;347;48.780;9.158;2022-10-22T02:04:42;5.23;;;5.10;;
727;SDS011;347;48.780;9.158;2022-10-22T02:07:14;5.90;;;5.70;;
727;SDS011;347;48.780;9.158;2022-10-22T02:10:00;5.80;;;5.50;;
727;SDS011;347;48.780;9.158;2022-10-22T02:12:28;5.97;;;5.67;;
727;SDS011;347;48.780;9.158;2022-10-22T02:14:56;6.30;;;6.10;;
727;SDS011;347;48.780;9.158;2022-10-22T02:17:23;6.73;;;6.47;;
727;SDS011;347;48.780;9.158;2022-10-22T02:19:56;6.07;;;5.87;;
727;SDS011;347;48.780;9.158;2022-10-22T02:22:25;7.40;;;7.00;;
727;SDS011;347;48.780;9.158;2022-10-22T02:24:52;6.93;;;6.63;;
727;SDS011;347;48.780;9.158;2022-10-22T02:30:00;7.67;;;7.37;;
727;SDS011;347;48.780;9.158;2022-10-22T02:35:17;7.60;;;7.23;;
727;SDS011;347;48.780;9.158;2022-10-22T02:37:46;7.70;;;7.40;;
727;SDS011;347;48.780;9.158;2022-10-22T02:40:13;7.50;;;7.30;;
727;SDS011;347;48.780;9.158;2022-10-22T02:42:40;8.50;;;8.10;;
727;SDS011;347;48.780;9.158;2022-10-22T02:45:07;9.13;;;8.50;;
727;SDS011;347;48.780;9.158;2022-10-22T02:47:33;7.63;;;7.43;;
727;SDS011;347;48.780;9.158;2022-10-22T02:49:59;7.37;;;7.17;;
727;SDS011;347;48.780;9.158;2022-10-22T02:52:24;7.70;;;7.50;;
727;SDS011;347;48.780;9.158;2022-10-22T02:54:50;7.77;;;7.57;;
727;SDS011;347;48.780;9.158;2022-10-22T02:57:16;7.90;;;7.70;;
727;SDS011;347;48.780;9.158;2022-10-22T02:59:41;8.03;;;7.77;;
727;SDS011;347;48.780;9.158;2022-10-22T03:02:07;8.63;;;8.43;;
727;SDS011;347;48.780;9.158;2022-10-22T03:04:33;9.10;;;8.60;;
727;SDS011;347;48.780;9.158;2022-10-22T03:06:59;8.90;;;8.70;;
727;SDS011;347;48.780;9.158;2022-10-22T03:09:25;9.37;;;9.07;;
727;SDS011;347;48.780;9.158;2022-10-22T03:11:51;8.70;;;8.40;;
727;SDS011;347;48.780;9.158;2022-10-22T03:14:16;9.40;;;9.00;;
727;SDS011;347;48.780;9.158;2022-10-22T03:16:42;9.27;;;8.90;;
727;SDS011;347;48.780;9.158;2022-10-22T03:19:08;8.40;;;8.20;;
727;SDS011;347;48.780;9.158;2022-10-22T03:21:41;9.10;;;8.47;;
727;SDS011;347;48.780;9.158;2022-10-22T03:24:17;8.60;;;8.40;;
727;SDS011;347;48.780;9.158;2022-10-22T03:26:52;8.70;;;8.40;;
727;SDS011;347;48.780;9.158;2022-10-22T03:29:19;8.50;;;8.30;;
727;SDS011;347;48.780;9.158;2022-10-22T03:31:46;8.30;;;8.10;;
727;SDS011;347;48.780;9.158;2022-10-22T03:34:12;8.47;;;8.27;;
727;SDS011;347;48.780;9.158;2022-10-22T03:36:39;9.27;;;8.60;;
727;SDS011;347;48.780;9.158;2022-10-22T03:39:05;7.87;;;7.67;;
727;SDS011;347;48.780;9.158;2022-10-22T03:41:31;8.53;;;8.13;;
727;SDS011;347;48.780;9.158;2022-10-22T03:43:58;8.77;;;8.37;;
727;SDS011;347;48.780;9.158;2022-10-22T03:46:25;8.07;;;7.87;;
727;SDS011;347;48.780;9.158;2022-10-22T03:48:51;8.20;;;8.00;;
727;SDS011;347;48.780;9.158;2022-10-22T03:51:16;8.23;;;7.93;;
727;SDS011;347;48.780;9.158;2022-10-22T03:53:42;9.00;;;8.50;;
727;SDS011;347;48.780;9.158;2022-10-22T03:56:08;8.53;;;8.33;;
727;SDS011;347;48.780;9.158;2022-10-22T03:58:35;9.17;;;8.83;;
727;SDS011;347;48.780;9.158;2022-10-22T04:01:05;8.40;;;8.10;;
727;SDS011;347;48.780;9.158;2022-10-22T04:03:32;7.93;;;7.73;;
727;SDS011;347;48.780;9.158;2022-10-22T04:06:06;8.33;;;8.03;;
727;SDS011;347;48.780;9.158;2022-10-22T04:08:34;8.80;;;8.40;;
727;SDS011;347;48.780;9.158;2022-10-22T04:11:00;8.33;;;8.03;;
727;SDS011;347;48.780;9.158;2022-10-22T04:13:26;8.20;;;8.00;;
727;SDS011;347;48.780;9.158;2022-10-22T04:15:52;8.50;;;8.10;;
727;SDS011;347;48.780;9.158;2022-10-22T04:18:18;8.80;;;8.50;;
727;SDS011;347;48.780;9.158;2022-10-22T04:20:44;9.00;;;8.50;;
727;SDS011;347;48.780;9.158;2022-10-22T04:23:11;8.17;;;7.93;;
727;SDS011;347;48.780;9.158;2022-10-22T04:25:36;8.60;;;8.40;;
727;SDS011;347;48.780;9.158;2022-10-22T04:28:05;8.40;;;8.20;;
727;SDS011;347;48.780;9.158;2022-10-22T04:30:32;9.30;;;8.90;;
727;SDS011;347;48.780;9.158;2022-10-22T04:32:58;8.73;;;8.40;;
727;SDS011;347;48.780;9.158;2022-10-22T04:35:23;8.80;;;8.50;;
727;SDS011;347;48.780;9.158;2022-10-22T04:37:49;8.47;;;8.17;;
727;SDS011;347;48.780;9.158;2022-10-22T04:40:15;9.00;;;8.80;;
727;SDS011;347;48.780;9.158;2022-10-22T04:42:41;8.67;;;8.47;;
727;SDS011;347;48.780;9.158;2022-10-22T04:45:06;9.40;;;8.40;;
727;SDS011;347;48.780;9.158;2022-10-22T04:47:33;8.40;;;8.20;;
727;SDS011;347;48.780;9.158;2022-10-22T04:49:58;8.53;;;8.20;;
727;SDS011;347;48.780;9.158;2022-10-22T04:52:24;8.33;;;8.07;;
727;SDS011;347;48.780;9.158;2022-10-22T04:54:49;7.93;;;7.70;;
727;SDS011;347;48.780;9.158;2022-10-22T04:57:15;8.50;;;8.20;;
727;SDS011;347;48.780;9.158;2022-10-22T04:59:40;7.53;;;7.33;;
727;SDS011;347;48.780;9.158;2022-10-22T05:02:06;8.20;;;7.90;;
727;SDS011;347;48.780;9.158;2022-10-22T05:04:32;8.40;;;7.97;;
727;SDS011;347;48.780;9.158;2022-10-22T05:06:57;8.20;;;7.90;;
727;SDS011;347;48.780;9.158;2022-10-22T05:09:23;7.83;;;7.53;;
727;SDS011;347;48.780;9.158;2022-10-22T05:11:50;8.30;;;8.00;;
727;SDS011;347;48.780;9.158;2022-10-22T05:14:18;7.40;;;7.20;;
727;SDS011;347;48.780;9.158;2022-10-22T05:16:45;8.07;;;7.67;;
727;SDS011;347;48.780;9.158;2022-10-22T05:19:14;7.00;;;6.80;;
727;SDS011;347;48.780;9.158;2022-10-22T05:21:42;6.73;;;6.40;;
727;SDS011;347;48.780;9.158;2022-10-22T05:24:08;7.90;;;7.60;;
727;SDS011;347;48.780;9.158;2022-10-22T05:26:34;7.63;;;7.30;;
727;SDS011;347;48.780;9.158;2022-10-22T05:29:00;7.10;;;6.90;;
727;SDS011;347;48.780;9.158;2022-10-22T05:31:25;7.77;;;7.37;;
727;SDS011;347;48.780;9.158;2022-10-22T05:33:52;7.33;;;7.00;;
727;SDS011;347;48.780;9.158;2022-10-22T05:36:19;7.07;;;6.77;;
727;SDS011;347;48.780;9.158;2022-10-22T05:38:46;7.03;;;6.83;;
727;SDS011;347;48.780;9.158;2022-10-22T05:41:13;7.63;;;7.23;;
727;SDS011;347;48.780;9.158;2022-10-22T05:43:43;6.97;;;6.77;;
727;SDS011;347;48.780;9.158;2022-10-22T05:46:11;7.83;;;7.57;;
727;SDS011;347;48.780;9.158;2022-10-22T05:48:38;7.60;;;7.30;;
727;SDS011;347;48.780;9.158;2022-10-22T05:51:11;7.67;;;7.27;;
727;SDS011;347;48.780;9.158;2022-10-22T05:53:38;8.17;;;7.87;;
727;SDS011;347;48.780;9.158;2022-10-22T05:56:13;7.90;;;7.60;;
727;SDS011;347;48.780;9.158;2022-10-22T05:58:40;7.63;;;7.33;;
727;SDS011;347;48.780;9.158;2022-10-22T06:01:08;8.07;;;7.83;;
727;SDS011;347;48.780;9.158;2022-10-22T06:03:40;7.80;;;7.60;;
727;SDS011;347;48.780;9.158;2022-10-22T06:06:51;8.10;;;7.80;;
727;SDS011;347;48.780;9.158;2022-10-22T06:08:55;7.80;;;7.60;;
727;SDS011;347;48.780;9.158;2022-10-22T06:11:23;7.93;;;7.53;;
727;SDS011;347;48.780;9.158;2022-10-22T06:13:49;8.20;;;7.80;;
727;SDS011;347;48.780;9.158;2022-10-22T06:16:16;7.60;;;7.30;;
727;SDS011;347;48.780;9.158;2022-10-22T06:18:42;8.07;;;7.87;;
727;SDS011;347;48.780;9.158;2022-10-22T06:21:08;8.27;;;8.00;;
727;SDS011;347;48.780;9.158;2022-10-22T06:23:36;8.87;;;8.37;;
727;SDS011;347;48.780;9.158;2022-10-22T06:26:02;8.33;;;8.13;;
727;SDS011;347;48.780;9.158;2022-10-22T06:28:29;9.80;;;9.20;;
727;SDS011;347;48.780;9.158;2022-10-22T06:30:58;9.20;;;8.90;;
727;SDS011;347;48.780;9.158;2022-10-22T06:33:25;9.00;;;8.70;;
727;SDS011;347;48.780;9.158;2022-10-22T06:35:53;9.27;;;8.87;;
727;SDS011;347;48.780;9.158;2022-10-22T06:38:18;9.00;;;8.70;;
727;SDS011;347;48.780;9.158;2022-10-22T06:40:44;8.50;;;8.30;;
727;SDS011;347;48.780;9.158;2022-10-22T06:43:10;8.73;;;8.50;;
727;SDS011;347;48.780;9.158;2022-10-22T06:45:37;9.40;;;9.10;;
727;SDS011;347;48.780;9.158;2022-10-22T06:48:03;10.13;;;9.83;;
727;SDS011;347;48.780;9.158;2022-10-22T06:50:29;9.40;;;9.10;;
727;SDS011;347;48.780;9.158;2022-10-22T06:52:55;9.00;;;8.80;;
727;SDS011;347;48.780;9.158;2022-10-22T06:55:21;9.40;;;8.83;;
727;SDS011;347;48.780;9.158;2022-10-22T06:57:47;8.03;;;7.73;;
727;SDS011;347;48.780;9.158;2022-10-22T07:00:12;8.60;;;8.40;;
727;SDS011;347;48.780;9.158;2022-10-22T07:02:38;8.87;;;8.57;;
727;SDS011;347;48.780;9.158;2022-10-22T07:05:04;8.80;;;8.50;;
727;SDS011;347;48.780;9.158;2022-10-22T07:07:30;9.40;;;9.03;;
727;SDS011;347;48.780;9.158;2022-10-22T07:09:55;10.10;;;9.47;;
727;SDS011;347;48.780;9.158;2022-10-22T07:12:21;9.23;;;8.53;;
727;SDS011;347;48.780;9.158;2022-10-22T07:14:47;9.03;;;8.73;;
727;SDS011;347;48.780;9.158;2022-10-22T07:17:13;8.77;;;8.47;;
727;SDS011;347;48.780;9.158;2022-10-22T07:19:39;8.77;;;8.30;;
727;SDS011;347;48.780;9.158;2022-10-22T07:22:05;7.70;;;7.43;;
727;SDS011;347;48.780;9.158;2022-10-22T07:24:30;7.60;;;7.40;;
727;SDS011;347;48.780;9.158;2022-10-22T07:26:56;8.00;;;7.70;;
727;SDS011;347;48.780;9.158;2022-10-22T07:29:22;7.80;;;7.47;;
727;SDS011;347;48.780;9.158;2022-10-22T07:31:47;7.83;;;7.63;;
727;SDS011;347;48.780;9.158;2022-10-22T07:34:13;8.17;;;7.80;;
727;SDS011;347;48.780;9.158;2022-10-22T07:36:39;8.33;;;8.03;;
727;SDS011;347;48.780;9.158;2022-10-22T07:39:04;8.90;;;8.57;;
727;SDS011;347;48.780;9.158;2022-10-22T07:41:30;8.70;;;8.23;;
727;SDS011;347;48.780;9.158;2022-10-22T07:43:56;7.70;;;7.50;;
727;SDS011;347;48.780;9.158;2022-10-22T07:46:22;8.90;;;8.60;;
727;SDS011;347;48.780;9.158;2022-10-22T07:48:49;8.50;;;8.20;;
727;SDS011;347;48.780;9.158;2022-10-22T07:51:15;8.70;;;8.33;;
727;SDS011;347;48.780;9.158;2022-10-22T07:53:41;7.70;;;7.50;;
727;SDS011;347;48.780;9.158;2022-10-22T07:56:07;7.60;;;7.40;;
727;SDS011;347;48.780;9.158;2022-10-22T07:58:33;7.73;;;7.53;;
727;SDS011;347;48.780;9.158;2022-10-22T08:00:59;8.30;;;8.00;;
727;SDS011;347;48.780;9.158;2022-10-22T08:03:26;7.80;;;7.60;;
727;SDS011;347;48.780;9.158;2022-10-22T08:05:53;8.97;;;8.57;;
727;SDS011;347;48.780;9.158;2022-10-22T08:08:19;9.23;;;8.90;;
727;SDS011;347;48.780;9.158;2022-10-22T08:10:46;8.67;;;8.37;;
727;SDS011;347;48.780;9.158;2022-10-22T08:13:12;8.87;;;8.57;;
727;SDS011;347;48.780;9.158;2022-10-22T08:15:39;8.80;;;8.30;;
727;SDS011;347;48.780;9.158;2022-10-22T08:18:06;9.00;;;8.70;;
727;SDS011;347;48.780;9.158;2022-10-22T08:20:32;9.50;;;9.17;;
727;SDS011;347;48.780;9.158;2022-10-22T08:22:57;8.83;;;8.50;;
727;SDS011;347;48.780;9.158;2022-10-22T08:25:23;9.30;;;8.90;;
727;SDS011;347;48.780;9.158;2022-10-22T08:27:49;9.13;;;8.80;;
727;SDS011;347;48.780;9.158;2022-10-22T08:30:15;9.00;;;8.80;;
727;SDS011;347;48.780;9.158;2022-10-22T08:32:41;8.97;;;8.67;;
727;SDS011;347;48.780;9.158;2022-10-22T08:35:07;9.30;;;9.00;;
727;SDS011;347;48.780;9.158;2022-10-22T08:37:33;8.70;;;8.40;;
727;SDS011;347;48.780;9.158;2022-10-22T08:39:58;9.60;;;9.20;;
727;SDS011;347;48.780;9.158;2022-10-22T08:45:33;8.70;;;8.20;;
727;SDS011;347;48.780;9.158;2022-10-22T08:48:20;8.57;;;8.27;;
727;SDS011;347;48.780;9.158;2022-10-22T08:51:16;8.13;;;7.93;;
727;SDS011;347;48.780;9.158;2022-10-22T08:53:48;8.00;;;7.80;;
727;SDS011;347;48.780;9.158;2022-10-22T08:56:34;9.13;;;8.77;;
727;SDS011;347;48.780;9.158;2022-10-22T08:59:09;8.40;;;8.10;;
727;SDS011;347;48.780;9.158;2022-10-22T09:01:40;8.70;;;8.40;;
727;SDS011;347;48.780;9.158;2022-10-22T09:04:18;9.10;;;8.70;;
727;SDS011;347;48.780;9.158;2022-10-22T09:06:54;8.43;;;8.20;;
727;SDS011;347;48.780;9.158;2022-10-22T09:09:22;7.70;;;7.40;;
727;SDS011;347;48.780;9.158;2022-10-22T09:11:53;8.00;;;7.80;;
727;SDS011;347;48.780;9.158;2022-10-22T09:14:22;8.70;;;8.40;;
727;SDS011;347;48.780;9.158;2022-10-22T09:19:47;9.00;;;8.70;;
727;SDS011;347;48.780;9.158;2022-10-22T09:27:45;10.03;;;9.43;;
727;SDS011;347;48.780;9.158;2022-10-22T09:30:16;10.53;;;9.93;;
727;SDS011;347;48.780;9.158;2022-10-22T09:32:44;9.80;;;9.50;;
727;SDS011;347;48.780;9.158;2022-10-22T09:35:10;9.83;;;9.53;;
727;SDS011;347;48.780;9.158;2022-10-22T09:37:45;11.10;;;10.50;;
727;SDS011;347;48.780;9.158;2022-10-22T09:40:13;10.20;;;9.90;;
727;SDS011;347;48.780;9.158;2022-10-22T09:42:40;10.50;;;10.20;;
727;SDS011;347;48.780;9.158;2022-10-22T09:45:05;11.67;;;11.27;;
727;SDS011;347;48.780;9.158;2022-10-22T09:50:28;9.77;;;9.47;;
727;SDS011;347;48.780;9.158;2022-10-22T09:55:41;9.30;;;8.90;;
727;SDS011;347;48.780;9.158;2022-10-22T09:58:11;9.50;;;9.20;;
727;SDS011;347;48.780;9.158;2022-10-22T10:00:42;8.37;;;7.97;;
727;SDS011;347;48.780;9.158;2022-10-22T10:03:17;9.40;;;9.10;;
727;SDS011;347;48.780;9.158;2022-10-22T10:05:46;9.43;;;8.53;;
727;SDS011;347;48.780;9.158;2022-10-22T10:08:14;8.77;;;8.47;;
727;SDS011;347;48.780;9.158;2022-10-22T10:10:49;9.07;;;8.77;;
727;SDS011;347;48.780;9.158;2022-10-22T10:21:25;10.33;;;9.83;;
727;SDS011;347;48.780;9.158;2022-10-22T10:24:05;9.83;;;9.43;;
727;SDS011;347;48.780;9.158;2022-10-22T10:26:38;9.07;;;8.87;;
727;SDS011;347;48.780;9.158;2022-10-22T10:29:31;9.63;;;9.33;;
727;SDS011;347;48.780;9.158;2022-10-22T10:41:03;9.60;;;9.20;;
727;SDS011;347;48.780;9.158;2022-10-22T10:49:15;9.43;;;9.13;;
727;SDS011;347;48.780;9.158;2022-10-22T10:54:20;9.70;;;9.40;;
727;SDS011;347;48.780;9.158;2022-10-22T10:56:50;9.53;;;9.13;;
727;SDS011;347;48.780;9.158;2022-10-22T11:02:14;9.30;;;8.80;;
727;SDS011;347;48.780;9.158;2022-10-22T11:07:48;9.20;;;8.90;;
727;SDS011;347;48.780;9.158;2022-10-22T11:10:28;9.07;;;8.67;;
727;SDS011;347;48.780;9.158;2022-10-22T11:12:56;8.60;;;8.20;;
727;SDS011;347;48.780;9.158;2022-10-22T11:15:48;9.30;;;8.87;;
727;SDS011;347;48.780;9.158;2022-10-22T11:21:05;8.60;;;8.30;;
727;SDS011;347;48.780;9.158;2022-10-22T11:29:14;8.23;;;8.03;;
727;SDS011;347;48.780;9.158;2022-10-22T11:31:45;8.37;;;8.07;;
727;SDS011;347;48.780;9.158;2022-10-22T11:34:20;9.20;;;8.60;;
727;SDS011;347;48.780;9.158;2022-10-22T11:36:48;8.93;;;8.63;;
727;SDS011;347;48.780;9.158;2022-10-22T11:42:36;8.60;;;8.33;;
727;SDS011;347;48.780;9.158;2022-10-22T11:53:01;8.50;;;8.00;;
727;SDS011;347;48.780;9.158;2022-10-22T11:55:50;8.97;;;8.47;;
727;SDS011;347;48.780;9.158;2022-10-22T12:08:44;9.00;;;8.70;;
727;SDS011;347;48.780;9.158;2022-10-22T12:19:37;8.97;;;8.30;;
727;SDS011;347;48.780;9.158;2022-10-22T12:25:22;8.63;;;8.33;;
727;SDS011;347;48.780;9.158;2022-10-22T12:27:54;9.00;;;8.70;;
727;SDS011;347;48.780;9.158;2022-10-22T12:30:23;9.80;;;9.20;;
727;SDS011;347;48.780;9.158;2022-10-22T12:32:55;9.30;;;8.90;;
727;SDS011;347;48.780;9.158;2022-10-22T12:35:23;8.10;;;7.80;;
727;SDS011;347;48.780;9.158;2022-10-22T12:37:53;9.30;;;8.73;;
727;SDS011;347;48.780;9.158;2022-10-22T12:42:56;9.07;;;8.57;;
727;SDS011;347;48.780;9.158;2022-10-22T12:45:25;9.00;;;8.30;;
727;SDS011;347;48.780;9.158;2022-10-22T12:48:00;9.40;;;9.10;;
727;SDS011;347;48.780;9.158;2022-10-22T12:50:35;8.90;;;8.60;;
727;SDS011;347;48.780;9.158;2022-10-22T12:53:05;9.30;;;8.87;;
727;SDS011;347;48.780;9.158;2022-10-22T12:55:39;8.40;;;8.00;;
727;SDS011;347;48.780;9.158;2022-10-22T12:58:06;8.30;;;8.10;;
727;SDS011;347;48.780;9.158;2022-10-22T13:00:33;8.70;;;8.40;;
727;SDS011;347;48.780;9.158;2022-10-22T13:03:00;9.33;;;8.93;;
727;SDS011;347;48.780;9.158;2022-10-22T13:05:30;9.23;;;8.83;;
727;SDS011;347;48.780;9.158;2022-10-22T13:08:09;9.50;;;9.10;;
727;SDS011;347;48.780;9.158;2022-10-22T13:10:47;8.80;;;8.60;;
727;SDS011;347;48.780;9.158;2022-10-22T13:13:39;9.67;;;9.37;;
727;SDS011;347;48.780;9.158;2022-10-22T13:18:48;10.50;;;9.67;;
727;SDS011;347;48.780;9.158;2022-10-22T13:21:22;9.43;;;9.17;;
727;SDS011;347;48.780;9.158;2022-10-22T13:24:20;9.50;;;9.00;;
727;SDS011;347;48.780;9.158;2022-10-22T13:26:48;8.80;;;8.33;;
727;SDS011;347;48.780;9.158;2022-10-22T13:29:15;10.00;;;9.47;;
727;SDS011;347;48.780;9.158;2022-10-22T13:31:47;9.70;;;9.20;;
727;SDS011;347;48.780;9.158;2022-10-22T13:34:15;8.93;;;8.63;;
727;SDS011;347;48.780;9.158;2022-10-22T13:36:43;8.90;;;8.60;;
727;SDS011;347;48.780;9.158;2022-10-22T13:39:16;9.03;;;8.70;;
727;SDS011;347;48.780;9.158;2022-10-22T13:41:43;9.60;;;9.10;;
727;SDS011;347;48.780;9.158;2022-10-22T13:44:09;9.47;;;9.17;;
727;SDS011;347;48.780;9.158;2022-10-22T13:46:34;9.20;;;8.80;;
727;SDS011;347;48.780;9.158;2022-10-22T13:49:06;9.83;;;9.53;;
727;SDS011;347;48.780;9.158;2022-10-22T13:51:38;11.47;;;11.00;;
727;SDS011;347;48.780;9.158;2022-10-22T13:54:07;9.10;;;8.90;;
727;SDS011;347;48.780;9.158;2022-10-22T13:56:38;9.30;;;8.90;;
727;SDS011;347;48.780;9.158;2022-10-22T13:59:04;9.90;;;9.50;;
727;SDS011;347;48.780;9.158;2022-10-22T14:01:29;9.80;;;9.50;;
727;SDS011;347;48.780;9.158;2022-10-22T14:03:56;10.00;;;9.50;;
727;SDS011;347;48.780;9.158;2022-10-22T14:06:24;9.13;;;8.73;;
727;SDS011;347;48.780;9.158;2022-10-22T14:08:58;10.10;;;9.50;;
727;SDS011;347;48.780;9.158;2022-10-22T14:11:32;9.67;;;9.37;;
727;SDS011;347;48.780;9.158;2022-10-22T14:13:59;10.20;;;9.80;;
727;SDS011;347;48.780;9.158;2022-10-22T14:16:27;9.67;;;9.30;;
727;SDS011;347;48.780;9.158;2022-10-22T14:18:58;9.33;;;8.93;;
727;SDS011;347;48.780;9.158;2022-10-22T14:21:24;8.93;;;8.63;;
727;SDS011;347;48.780;9.158;2022-10-22T14:23:52;9.50;;;9.00;;
727;SDS011;347;48.780;9.158;2022-10-22T14:26:23;8.90;;;8.60;;
727;SDS011;347;48.780;9.158;2022-10-22T14:28:52;9.27;;;8.90;;
727;SDS011;347;48.780;9.158;2022-10-22T14:31:17;9.27;;;8.87;;
727;SDS011;347;48.780;9.158;2022-10-22T14:33:43;9.57;;;9.00;;
727;SDS011;347;48.780;9.158;2022-10-22T14:36:12;10.27;;;8.70;;
727;SDS011;347;48.780;9.158;2022-10-22T14:38:38;10.00;;;9.30;;
727;SDS011;347;48.780;9.158;2022-10-22T14:41:09;9.10;;;8.70;;
727;SDS011;347;48.780;9.158;2022-10-22T14:43:42;9.00;;;8.70;;
727;SDS011;347;48.780;9.158;2022-10-22T14:46:08;8.40;;;8.10;;
727;SDS011;347;48.780;9.158;2022-10-22T14:48:36;9.23;;;8.73;;
727;SDS011;347;48.780;9.158;2022-10-22T14:51:01;9.27;;;8.87;;
727;SDS011;347;48.780;9.158;2022-10-22T14:53:27;8.60;;;8.23;;
727;SDS011;347;48.780;9.158;2022-10-22T14:55:53;8.97;;;8.47;;
727;SDS011;347;48.780;9.158;2022-10-22T14:58:22;8.80;;;8.50;;
727;SDS011;347;48.780;9.158;2022-10-22T15:00:48;8.30;;;8.07;;
727;SDS011;347;48.780;9.158;2022-10-22T15:03:13;8.60;;;8.30;;
727;SDS011;347;48.780;9.158;2022-10-22T15:05:39;8.03;;;7.70;;
727;SDS011;347;48.780;9.158;2022-10-22T15:08:08;8.47;;;8.17;;
727;SDS011;347;48.780;9.158;2022-10-22T15:10:34;10.63;;;10.10;;
727;SDS011;347;48.780;9.158;2022-10-22T15:12:59;9.30;;;8.93;;
727;SDS011;347;48.780;9.158;2022-10-22T15:15:25;8.50;;;8.20;;
727;SDS011;347;48.780;9.158;2022-10-22T15:17:51;8.97;;;8.47;;
727;SDS011;347;48.780;9.158;2022-10-22T15:20:17;8.77;;;8.27;;
727;SDS011;347;48.780;9.158;2022-10-22T15:22:44;8.10;;;7.70;;
727;SDS011;347;48.780;9.158;2022-10-22T15:25:09;9.00;;;8.60;;
727;SDS011;347;48.780;9.158;2022-10-22T15:27:37;9.23;;;8.53;;
727;SDS011;347;48.780;9.158;2022-10-22T15:30:03;9.97;;;9.10;;
727;SDS011;347;48.780;9.158;2022-10-22T15:32:30;8.27;;;7.93;;
727;SDS011;347;48.780;9.158;2022-10-22T15:34:57;8.30;;;8.00;;
727;SDS011;347;48.780;9.158;2022-10-22T15:37:23;9.10;;;8.73;;
727;SDS011;347;48.780;9.158;2022-10-22T15:39:49;8.90;;;8.60;;
727;SDS011;347;48.780;9.158;2022-10-22T15:42:14;8.60;;;8.30;;
727;SDS011;347;48.780;9.158;2022-10-22T15:44:40;9.10;;;8.70;;
727;SDS011;347;48.780;9.158;2022-10-22T15:47:06;9.03;;;8.40;;
727;SDS011;347;48.780;9.158;2022-10-22T15:49:33;8.53;;;8.23;;
727;SDS011;347;48.780;9.158;2022-10-22T15:52:00;9.60;;;9.00;;
727;SDS011;347;48.780;9.158;2022-10-22T15:54:28;9.47;;;9.00;;
727;SDS011;347;48.780;9.158;2022-10-22T15:56:55;9.67;;;9.27;;
727;SDS011;347;48.780;9.158;2022-10-22T15:59:21;14.10;;;13.10;;
727;SDS011;347;48.780;9.158;2022-10-22T16:01:48;15.87;;;14.80;;
727;SDS011;347;48.780;9.158;2022-10-22T16:04:13;14.70;;;13.87;;
727;SDS011;347;48.780;9.158;2022-10-22T16:06:43;16.50;;;15.40;;
727;SDS011;347;48.780;9.158;2022-10-22T16:09:12;18.67;;;17.37;;
727;SDS011;347;48.780;9.158;2022-10-22T16:11:40;16.67;;;15.67;;
727;SDS011;347;48.780;9.158;2022-10-22T16:14:06;17.30;;;16.00;;
727;SDS011;347;48.780;9.158;2022-10-22T16:16:34;16.40;;;15.30;;
727;SDS011;347;48.780;9.158;2022-10-22T16:19:00;17.27;;;15.73;;
727;SDS011;347;48.780;9.158;2022-10-22T16:21:27;15.90;;;14.70;;
727;SDS011;347;48.780;9.158;2022-10-22T16:23:52;12.93;;;12.13;;
727;SDS011;347;48.780;9.158;2022-10-22T16:26:18;12.63;;;11.80;;
727;SDS011;347;48.780;9.158;2022-10-22T16:28:45;14.23;;;13.23;;
727;SDS011;347;48.780;9.158;2022-10-22T16:31:12;14.90;;;14.00;;
727;SDS011;347;48.780;9.158;2022-10-22T16:33:40;14.03;;;13.23;;
727;SDS011;347;48.780;9.158;2022-10-22T16:36:07;15.37;;;14.30;;
727;SDS011;347;48.780;9.158;2022-10-22T16:38:35;13.67;;;12.47;;
727;SDS011;347;48.780;9.158;2022-10-22T16:41:20;13.50;;;12.80;;
727;SDS011;347;48.780;9.158;2022-10-22T16:43:48;14.30;;;13.30;;
727;SDS011;347;48.780;9.158;2022-10-22T16:46:19;14.53;;;13.20;;
727;SDS011;347;48.780;9.158;2022-10-22T16:48:50;14.33;;;13.23;;
727;SDS011;347;48.780;9.158;2022-10-22T16:51:18;14.00;;;13.07;;
727;SDS011;347;48.780;9.158;2022-10-22T16:53:45;13.43;;;12.63;;
727;SDS011;347;48.780;9.158;2022-10-22T16:56:12;12.83;;;11.83;;
727;SDS011;347;48.780;9.158;2022-10-22T16:58:43;12.63;;;11.93;;
727;SDS011;347;48.780;9.158;2022-10-22T17:01:11;14.93;;;13.40;;
727;SDS011;347;48.780;9.158;2022-10-22T17:03:37;14.03;;;13.00;;
727;SDS011;347;48.780;9.158;2022-10-22T17:06:03;12.97;;;12.13;;
727;SDS011;347;48.780;9.158;2022-10-22T17:08:30;12.77;;;12.07;;
727;SDS011;347;48.780;9.158;2022-10-22T17:11:03;14.27;;;13.00;;
727;SDS011;347;48.780;9.158;2022-10-22T17:13:33;12.50;;;11.70;;
727;SDS011;347;48.780;9.158;2022-10-22T17:16:05;13.30;;;12.40;;
727;SDS011;347;48.780;9.158;2022-10-22T17:18:33;12.43;;;11.73;;
727;SDS011;347;48.780;9.158;2022-10-22T17:21:00;13.47;;;12.30;;
727;SDS011;347;48.780;9.158;2022-10-22T17:23:25;12.40;;;11.60;;
727;SDS011;347;48.780;9.158;2022-10-22T17:25:59;10.70;;;10.20;;
727;SDS011;347;48.780;9.158;2022-10-22T17:28:27;11.77;;;10.97;;
727;SDS011;347;48.780;9.158;2022-10-22T17:31:04;11.27;;;10.47;;
727;SDS011;347;48.780;9.158;2022-10-22T17:33:50;10.40;;;9.70;;
727;SDS011;347;48.780;9.158;2022-10-22T17:36:17;10.10;;;9.70;;
727;SDS011;347;48.780;9.158;2022-10-22T17:38:46;9.87;;;9.47;;
727;SDS011;347;48.780;9.158;2022-10-22T17:41:14;10.70;;;10.20;;
727;SDS011;347;48.780;9.158;2022-10-22T17:43:45;10.87;;;10.27;;
727;SDS011;347;48.780;9.158;2022-10-22T17:46:16;10.73;;;9.90;;
727;SDS011;347;48.780;9.158;2022-10-22T17:48:44;12.87;;;12.13;;
727;SDS011;347;48.780;9.158;2022-10-22T17:51:14;10.10;;;9.70;;
727;SDS011;347;48.780;9.158;2022-10-22T17:53:41;10.17;;;9.77;;